N53JO BGSS-BGSF
Flight info
| Callsign | N53JO |
|---|---|
| Flight time | N/A |
| Altitude | 11000 |
| Route | HB DCT JOVAP DCT KEMOS DCT KEFOP DCT SF |
| Aircraft | E121/L-SDFGHRY/S |
Departure
| Time | N/A |
|---|---|
| Airport | Sisimiut Airport (BGSS) |
Arrival
| Time | 2026-04-18 11:07 |
|---|---|
| Airport | Kangerlussuaq International Airport (BGSF) |
| Time | Latitude | Longitude | Altitude | Speed | Heading |
|---|---|---|---|---|---|
| 2026-04-18 11:02 | 66.95437 | -51.24817 | 15972 ft | 199 kts | 88° |
| 2026-04-18 11:02 | 66.95411 | -51.21296 | 14907 ft | 198 kts | 88° |
| 2026-04-18 11:02 | 66.95387 | -51.17790 | 13877 ft | 197 kts | 89° |
| 2026-04-18 11:02 | 66.95358 | -51.14262 | 12687 ft | 200 kts | 89° |
| 2026-04-18 11:03 | 66.95329 | -51.10723 | 11567 ft | 197 kts | 89° |
| 2026-04-18 11:03 | 66.95301 | -51.07366 | 10772 ft | 183 kts | 89° |
| 2026-04-18 11:03 | 66.95276 | -51.04196 | 9983 ft | 175 kts | 89° |
| 2026-04-18 11:03 | 66.95250 | -51.01224 | 9590 ft | 151 kts | 89° |
| 2026-04-18 11:04 | 66.95328 | -50.98893 | 9574 ft | 116 kts | 64° |
| 2026-04-18 11:04 | 66.95730 | -50.97096 | 8968 ft | 127 kts | 60° |
| 2026-04-18 11:04 | 66.96160 | -50.95003 | 8157 ft | 141 kts | 60° |
| 2026-04-18 11:04 | 66.96639 | -50.92744 | 7359 ft | 146 kts | 60° |
| 2026-04-18 11:05 | 66.97136 | -50.90412 | 6582 ft | 151 kts | 59° |
| 2026-04-18 11:05 | 66.97628 | -50.88111 | 5815 ft | 146 kts | 59° |
| 2026-04-18 11:05 | 66.98111 | -50.85836 | 5003 ft | 145 kts | 59° |
| 2026-04-18 11:05 | 66.98594 | -50.83567 | 4205 ft | 145 kts | 60° |
| 2026-04-18 11:06 | 66.99070 | -50.81325 | 3337 ft | 143 kts | 59° |
| 2026-04-18 11:06 | 66.99539 | -50.79105 | 2314 ft | 134 kts | 60° |
| 2026-04-18 11:06 | 66.99956 | -50.77054 | 1130 ft | 129 kts | 61° |
| 2026-04-18 11:06 | 67.00398 | -50.75042 | 302 ft | 125 kts | 60° |
| 2026-04-18 11:07 | 67.00756 | -50.73360 | 157 ft | 92 kts | 61° |
| 2026-04-18 11:07 | 67.00985 | -50.72255 | 163 ft | 32 kts | 88° |
| 2026-04-18 11:07 | 67.00907 | -50.72075 | 165 ft | 15 kts | 150° |
| 2026-04-18 11:07 | 67.00822 | -50.71955 | 165 ft | 13 kts | 149° |
| 2026-04-18 11:08 | 67.00792 | -50.71824 | 166 ft | 8 kts | 94° |
| 2026-04-18 11:08 | 67.00772 | -50.71742 | 166 ft | 0 kts | 123° |